createdAt,value
2023-04-01T00:00:19.034Z,2.40
2023-04-01T00:01:08.871Z,2.80
2023-04-01T00:02:08.933Z,2.60
2023-04-01T00:03:08.909Z,2.50
2023-04-01T00:04:08.878Z,2.60
2023-04-01T00:05:08.822Z,2.70
2023-04-01T00:06:08.788Z,2.30
2023-04-01T00:07:08.841Z,2.00
2023-04-01T00:08:08.788Z,2.60
2023-04-01T00:09:08.761Z,2.50
2023-04-01T00:10:08.775Z,2.20
2023-04-01T00:11:08.749Z,2.50
2023-04-01T00:12:08.739Z,2.30
2023-04-01T00:13:08.800Z,2.40
2023-04-01T00:14:08.704Z,2.30
2023-04-01T00:15:08.673Z,2.70
2023-04-01T00:16:19.968Z,2.40
2023-04-01T00:17:08.746Z,2.70
2023-04-01T00:18:08.681Z,2.40
2023-04-01T00:19:08.644Z,2.20
2023-04-01T00:20:08.616Z,2.50
2023-04-01T00:21:08.636Z,2.70
2023-04-01T00:22:08.610Z,2.80
2023-04-01T00:23:08.597Z,2.50
2023-04-01T00:24:08.563Z,2.70
2023-04-01T00:25:08.555Z,2.00
2023-04-01T00:26:08.533Z,1.90
2023-04-01T00:27:08.538Z,2.70
2023-04-01T00:28:08.533Z,2.20
2023-04-01T00:29:08.572Z,2.60
2023-04-01T00:30:08.492Z,2.50
2023-04-01T00:31:08.567Z,2.40
2023-04-01T00:32:08.466Z,2.70
2023-04-01T00:33:08.491Z,2.50
2023-04-01T00:34:08.456Z,2.60
2023-04-01T00:35:08.427Z,2.60
2023-04-01T00:36:08.487Z,2.40
2023-04-01T00:37:08.395Z,2.40
2023-04-01T00:38:08.441Z,2.10
2023-04-01T00:39:08.397Z,2.20
2023-04-01T00:40:08.385Z,2.10
2023-04-01T00:41:08.378Z,2.60
2023-04-01T00:42:08.346Z,2.60
2023-04-01T00:43:08.334Z,2.30
2023-04-01T00:44:08.350Z,2.10
2023-04-01T00:45:08.352Z,2.70
2023-04-01T00:46:08.283Z,2.20
2023-04-01T00:47:08.356Z,2.00
2023-04-01T00:48:08.307Z,2.00
2023-04-01T00:49:08.236Z,2.10
2023-04-01T00:50:08.273Z,2.50
2023-04-01T00:51:08.232Z,3.80
2023-04-01T00:52:08.206Z,2.50
2023-04-01T00:53:08.201Z,2.70
2023-04-01T00:54:08.189Z,2.50
2023-04-01T00:55:08.181Z,2.90
2023-04-01T00:56:08.180Z,2.80
2023-04-01T00:57:08.210Z,2.80
2023-04-01T00:58:08.124Z,2.40
2023-04-01T00:59:08.140Z,2.60
2023-04-01T01:00:08.108Z,4.20
2023-04-01T01:01:08.150Z,2.90
2023-04-01T01:02:08.103Z,3.00
2023-04-01T01:03:08.141Z,3.20
2023-04-01T01:04:08.057Z,2.60
2023-04-01T01:05:08.023Z,3.10
2023-04-01T01:06:08.054Z,3.20
2023-04-01T01:07:08.022Z,3.20
2023-04-01T01:08:08.047Z,3.40
2023-04-01T01:09:07.996Z,2.80
2023-04-01T01:10:07.955Z,4.20
2023-04-01T01:11:07.966Z,3.30
2023-04-01T01:12:07.916Z,3.70
2023-04-01T01:13:07.931Z,3.30
2023-04-01T01:14:07.876Z,4.30
2023-04-01T01:15:07.912Z,3.50
2023-04-01T01:16:07.917Z,3.70
2023-04-01T01:17:07.853Z,4.00
2023-04-01T01:18:07.892Z,4.10
2023-04-01T01:19:07.861Z,3.70
2023-04-01T01:20:12.782Z,3.80
2023-04-01T01:21:07.850Z,4.10
2023-04-01T01:22:07.784Z,3.50
2023-04-01T01:23:07.803Z,4.30
2023-04-01T01:24:07.772Z,3.50
2023-04-01T01:25:07.776Z,3.60
2023-04-01T01:26:07.724Z,3.70
2023-04-01T01:27:07.770Z,3.80
2023-04-01T01:28:07.704Z,3.90
2023-04-01T01:29:07.744Z,3.80
2023-04-01T01:30:07.678Z,3.70
2023-04-01T01:31:07.681Z,3.90
2023-04-01T01:32:07.633Z,3.80
2023-04-01T01:33:07.928Z,3.70
2023-04-01T01:34:07.638Z,3.40
2023-04-01T01:35:07.622Z,3.20
2023-04-01T01:36:07.700Z,3.60
2023-04-01T01:37:07.608Z,4.50
2023-04-01T01:38:07.604Z,3.40
2023-04-01T01:39:07.627Z,4.00
2023-04-01T01:40:07.554Z,3.90
2023-04-01T01:41:07.533Z,4.10
2023-04-01T01:42:07.538Z,3.50
2023-04-01T01:43:07.504Z,3.60
2023-04-01T01:44:07.502Z,3.30
2023-04-01T01:45:07.470Z,3.40
2023-04-01T01:46:07.532Z,3.50
2023-04-01T01:47:07.457Z,3.70
2023-04-01T01:48:07.481Z,4.50
2023-04-01T01:49:07.467Z,3.60
2023-04-01T01:50:07.424Z,3.60
2023-04-01T01:51:07.397Z,3.50
2023-04-01T01:52:07.417Z,3.50
2023-04-01T01:53:07.398Z,4.10
2023-04-01T01:54:07.369Z,2.80
2023-04-01T01:55:07.379Z,2.70
2023-04-01T01:56:07.349Z,3.10
2023-04-01T01:57:07.350Z,3.40
2023-04-01T01:58:07.346Z,3.00
2023-04-01T01:59:07.278Z,3.00
2023-04-01T02:00:07.306Z,3.50
2023-04-01T02:01:07.336Z,3.20
2023-04-01T02:02:07.261Z,2.80
2023-04-01T02:03:07.326Z,3.10
2023-04-01T02:04:07.293Z,3.00
2023-04-01T02:05:07.215Z,3.30
2023-04-01T02:06:07.202Z,2.60
2023-04-01T02:07:07.233Z,2.70
2023-04-01T02:08:07.163Z,2.70
2023-04-01T02:09:07.175Z,3.00
2023-04-01T02:10:07.166Z,3.00
2023-04-01T02:11:07.169Z,2.90
2023-04-01T02:12:07.136Z,3.70
2023-04-01T02:13:07.129Z,3.80
2023-04-01T02:14:07.111Z,3.20
2023-04-01T02:15:07.070Z,3.30
2023-04-01T02:16:07.112Z,2.80
2023-04-01T02:17:07.104Z,2.50
2023-04-01T02:18:07.062Z,3.50
2023-04-01T02:19:07.041Z,2.70
2023-04-01T02:20:06.991Z,2.90
2023-04-01T02:21:07.034Z,2.50
2023-04-01T02:22:06.976Z,2.60
2023-04-01T02:23:06.982Z,2.60
2023-04-01T02:24:06.955Z,2.80
2023-04-01T02:25:06.941Z,3.40
2023-04-01T02:26:06.942Z,3.00
2023-04-01T02:27:06.940Z,2.90
2023-04-01T02:28:06.902Z,2.70
2023-04-01T02:29:06.944Z,2.70
2023-04-01T02:30:06.883Z,3.30
2023-04-01T02:31:07.021Z,3.20
2023-04-01T02:32:06.863Z,2.70
2023-04-01T02:33:06.987Z,2.90
2023-04-01T02:34:06.829Z,3.10
2023-04-01T02:35:06.831Z,3.30
2023-04-01T02:36:06.839Z,2.80
2023-04-01T02:37:06.764Z,3.40
2023-04-01T02:38:06.808Z,3.70
2023-04-01T02:39:06.760Z,3.30
2023-04-01T02:40:06.740Z,3.30
2023-04-01T02:41:06.729Z,3.90
2023-04-01T02:42:06.711Z,3.40
2023-04-01T02:43:06.726Z,3.60
2023-04-01T02:44:06.685Z,3.60
2023-04-01T02:45:06.717Z,3.10
2023-04-01T02:46:06.640Z,3.20
2023-04-01T02:47:06.716Z,3.00
2023-04-01T02:48:06.679Z,2.90
2023-04-01T02:49:06.643Z,3.60
2023-04-01T02:50:06.619Z,4.50
2023-04-01T02:51:06.609Z,5.40
2023-04-01T02:52:06.576Z,3.20
2023-04-01T02:53:06.584Z,4.20
2023-04-01T02:54:06.563Z,4.00
2023-04-01T02:55:06.543Z,3.70
2023-04-01T02:56:06.528Z,3.30
2023-04-01T02:57:06.601Z,3.10
2023-04-01T02:58:06.507Z,3.10
2023-04-01T02:59:06.507Z,2.80
2023-04-01T03:00:06.558Z,2.60
2023-04-01T03:01:06.491Z,2.90
2023-04-01T03:02:06.509Z,3.10
2023-04-01T03:03:06.541Z,2.80
2023-04-01T03:04:06.462Z,2.70
2023-04-01T03:05:06.424Z,3.80
2023-04-01T03:06:06.439Z,3.20
2023-04-01T03:07:06.399Z,3.20
2023-04-01T03:08:06.377Z,3.70
2023-04-01T03:09:06.357Z,3.40
2023-04-01T03:10:06.364Z,3.40
2023-04-01T03:11:06.314Z,3.70
2023-04-01T03:12:06.324Z,3.60
2023-04-01T03:13:06.288Z,4.00
2023-04-01T03:14:06.324Z,4.50
2023-04-01T03:15:10.499Z,5.00
2023-04-01T03:16:06.291Z,3.20
2023-04-01T03:17:06.252Z,3.30
2023-04-01T03:18:06.285Z,5.20
2023-04-01T03:19:06.228Z,3.30
2023-04-01T03:20:06.248Z,3.60
2023-04-01T03:21:06.215Z,4.40
2023-04-01T03:22:06.181Z,4.40
2023-04-01T03:23:06.172Z,4.00
2023-04-01T03:24:06.160Z,3.50
2023-04-01T03:25:06.146Z,5.20
2023-04-01T03:26:06.131Z,5.40
2023-04-01T03:27:06.129Z,4.10
2023-04-01T03:28:06.113Z,3.90
2023-04-01T03:29:06.070Z,3.90
2023-04-01T03:30:06.225Z,4.30
2023-04-01T03:31:06.085Z,4.20
2023-04-01T03:32:06.045Z,4.30
2023-04-01T03:33:06.107Z,4.20
2023-04-01T03:34:06.058Z,4.10
2023-04-01T03:35:06.000Z,4.50
2023-04-01T03:36:06.012Z,4.60
2023-04-01T03:37:05.968Z,4.40
2023-04-01T03:38:06.014Z,4.70
2023-04-01T03:39:06.012Z,4.40
2023-04-01T03:40:05.930Z,4.20
2023-04-01T03:41:05.930Z,4.40
2023-04-01T03:42:05.917Z,4.80
2023-04-01T03:43:05.960Z,6.00
2023-04-01T03:44:05.889Z,5.10
2023-04-01T03:45:05.858Z,4.40
2023-04-01T03:46:05.895Z,5.30
2023-04-01T03:47:05.848Z,5.30
2023-04-01T03:48:05.853Z,5.20
2023-04-01T03:49:05.809Z,4.90
2023-04-01T03:50:05.800Z,5.00
2023-04-01T03:51:05.791Z,5.40
2023-04-01T03:52:05.809Z,5.00
2023-04-01T03:53:05.815Z,4.90
2023-04-01T03:54:05.776Z,4.30
2023-04-01T03:55:05.779Z,4.70
2023-04-01T03:56:05.796Z,4.60
2023-04-01T03:57:05.893Z,4.40
2023-04-01T03:58:05.773Z,5.00
2023-04-01T03:59:05.714Z,5.10
2023-04-01T04:00:05.702Z,5.50
2023-04-01T04:01:05.719Z,5.70
2023-04-01T04:02:05.662Z,5.40
2023-04-01T04:03:05.773Z,5.30
2023-04-01T04:04:05.657Z,5.20
2023-04-01T04:05:05.608Z,4.30
2023-04-01T04:06:05.615Z,5.20
2023-04-01T04:07:05.629Z,5.00
2023-04-01T04:08:05.587Z,6.10
2023-04-01T04:09:05.643Z,5.40
2023-04-01T04:10:05.573Z,5.90
2023-04-01T04:11:05.575Z,5.30
2023-04-01T04:12:05.519Z,5.40
2023-04-01T04:13:05.544Z,5.70
2023-04-01T04:14:05.569Z,5.40
2023-04-01T04:15:05.561Z,5.50
2023-04-01T04:16:05.455Z,5.20
2023-04-01T04:17:05.471Z,7.00
2023-04-01T04:18:05.479Z,8.60
2023-04-01T04:19:05.418Z,11.30
2023-04-01T04:20:05.540Z,12.00
2023-04-01T04:21:05.396Z,9.80
2023-04-01T04:22:05.386Z,11.70
2023-04-01T04:23:05.354Z,10.90
2023-04-01T04:24:05.388Z,13.00
2023-04-01T04:25:05.330Z,12.70
2023-04-01T04:26:05.361Z,11.50
2023-04-01T04:27:05.393Z,15.00
2023-04-01T04:28:05.372Z,15.70
2023-04-01T04:29:05.486Z,12.70
2023-04-01T04:30:05.358Z,13.70
2023-04-01T04:31:05.409Z,14.90
2023-04-01T04:32:05.395Z,13.70
2023-04-01T04:33:05.497Z,12.50
2023-04-01T04:34:05.373Z,11.90
2023-04-01T04:35:05.371Z,12.80
2023-04-01T04:36:05.491Z,16.00
2023-04-01T04:37:05.421Z,19.20
2023-04-01T04:38:05.257Z,14.40
2023-04-01T04:39:06.191Z,18.70
2023-04-01T04:40:05.233Z,18.40
2023-04-01T04:41:05.136Z,18.40
2023-04-01T04:42:05.142Z,15.70
2023-04-01T04:43:11.741Z,15.30
2023-04-01T04:44:05.106Z,14.30
2023-04-01T04:45:05.129Z,19.00
2023-04-01T04:46:05.090Z,14.70
2023-04-01T04:47:05.087Z,13.30
2023-04-01T04:48:05.046Z,14.20
2023-04-01T04:49:05.050Z,12.70
2023-04-01T04:50:05.037Z,12.30
2023-04-01T04:51:05.222Z,14.10
2023-04-01T04:52:05.130Z,18.70
2023-04-01T04:53:05.105Z,10.40
2023-04-01T04:54:05.017Z,10.30
2023-04-01T04:55:04.964Z,10.00
2023-04-01T04:56:05.024Z,8.00
2023-04-01T04:57:04.956Z,8.40
2023-04-01T04:58:04.894Z,6.60
2023-04-01T04:59:04.916Z,7.30
2023-04-01T05:00:04.915Z,7.80
2023-04-01T05:01:04.885Z,7.80
2023-04-01T05:02:04.898Z,7.10
2023-04-01T05:03:04.962Z,8.30
2023-04-01T05:04:04.837Z,9.40
2023-04-01T05:05:04.789Z,10.00
2023-04-01T05:06:04.795Z,8.10
2023-04-01T05:07:04.935Z,8.00
2023-04-01T05:08:04.864Z,8.40
2023-04-01T05:09:04.875Z,7.70
2023-04-01T05:10:04.728Z,8.50
2023-04-01T05:11:04.956Z,8.70
2023-04-01T05:12:04.826Z,8.80
2023-04-01T05:13:06.790Z,8.00
2023-04-01T05:14:04.700Z,8.90
2023-04-01T05:15:04.686Z,8.50
2023-04-01T05:16:04.656Z,9.30
2023-04-01T05:17:04.741Z,7.80
2023-04-01T05:18:04.682Z,8.20
2023-04-01T05:19:10.602Z,8.70
2023-04-01T05:20:04.593Z,9.10
2023-04-01T05:21:04.574Z,9.10
2023-04-01T05:22:04.573Z,8.20
2023-04-01T05:23:04.574Z,9.60
2023-04-01T05:24:04.569Z,10.20
2023-04-01T05:25:04.554Z,9.20
2023-04-01T05:26:04.529Z,8.90
2023-04-01T05:27:05.216Z,8.50
2023-04-01T05:28:04.503Z,9.30
2023-04-01T05:29:04.521Z,8.80
2023-04-01T05:30:04.580Z,8.60
2023-04-01T05:31:04.499Z,9.60
2023-04-01T05:32:04.519Z,9.10
2023-04-01T05:33:04.565Z,8.70
2023-04-01T05:34:04.479Z,7.80
2023-04-01T05:35:04.413Z,7.80
2023-04-01T05:36:04.487Z,8.40
2023-04-01T05:37:04.401Z,8.00
2023-04-01T05:38:04.383Z,8.10
2023-04-01T05:39:04.391Z,9.00
2023-04-01T05:40:04.369Z,7.50
2023-04-01T05:41:04.330Z,7.60
2023-04-01T05:42:05.605Z,7.70
2023-04-01T05:43:04.303Z,7.50
2023-04-01T05:44:04.309Z,7.50
2023-04-01T05:45:04.311Z,7.70
2023-04-01T05:46:04.303Z,7.20
2023-04-01T05:47:04.245Z,5.90
2023-04-01T05:48:04.305Z,6.50
2023-04-01T05:49:04.251Z,7.50
2023-04-01T05:50:04.248Z,6.80
2023-04-01T05:51:04.220Z,6.20
2023-04-01T05:52:04.222Z,6.30
2023-04-01T05:53:04.168Z,6.40
2023-04-01T05:54:04.170Z,5.80
2023-04-01T05:55:04.122Z,5.60
2023-04-01T05:56:08.857Z,5.70
2023-04-01T05:57:04.156Z,5.10
2023-04-01T05:58:04.119Z,4.90
2023-04-01T05:59:04.102Z,5.30
2023-04-01T06:00:04.056Z,5.60
2023-04-01T06:01:10.295Z,5.50
2023-04-01T06:02:04.043Z,5.00
2023-04-01T06:03:04.159Z,5.60
2023-04-01T06:04:05.148Z,4.70
2023-04-01T06:05:04.086Z,5.50
2023-04-01T06:06:04.018Z,4.80
2023-04-01T06:07:03.999Z,5.40
2023-04-01T06:08:04.004Z,5.40
2023-04-01T06:09:03.987Z,4.70
2023-04-01T06:10:03.935Z,4.90
2023-04-01T06:11:03.904Z,4.90
2023-04-01T06:12:03.914Z,4.20
2023-04-01T06:13:03.885Z,5.30
2023-04-01T06:14:04.300Z,4.80
2023-04-01T06:15:03.871Z,5.10
2023-04-01T06:16:03.900Z,5.10
2023-04-01T06:17:03.834Z,5.10
2023-04-01T06:18:03.901Z,5.90
2023-04-01T06:19:03.819Z,5.80
2023-04-01T06:20:03.821Z,5.40
2023-04-01T06:21:03.786Z,5.90
2023-04-01T06:22:03.786Z,5.50
2023-04-01T06:23:03.757Z,5.30
2023-04-01T06:24:03.754Z,6.00
2023-04-01T06:25:03.761Z,5.80
2023-04-01T06:26:03.768Z,5.70
2023-04-01T06:27:03.757Z,5.80
2023-04-01T06:28:03.948Z,6.20
2023-04-01T06:29:03.696Z,5.80
2023-04-01T06:30:03.730Z,6.10
2023-04-01T06:31:03.705Z,5.20
2023-04-01T06:32:10.382Z,5.90
2023-04-01T06:33:03.651Z,5.40
2023-04-01T06:34:03.663Z,6.20
2023-04-01T06:35:03.623Z,6.50
2023-04-01T06:36:03.758Z,6.00
2023-04-01T06:37:03.632Z,5.60
2023-04-01T06:38:03.574Z,6.10
2023-04-01T06:39:03.570Z,5.30
2023-04-01T06:40:03.586Z,4.20
2023-04-01T06:41:03.555Z,5.00
2023-04-01T06:42:03.786Z,5.00
2023-04-01T06:43:03.571Z,14.80
2023-04-01T06:44:03.506Z,6.40
2023-04-01T06:45:03.450Z,5.40
2023-04-01T06:46:03.453Z,5.90
2023-04-01T06:47:03.445Z,6.30
2023-04-01T06:48:03.551Z,5.00
2023-04-01T06:49:03.585Z,5.40
2023-04-01T06:50:03.454Z,4.50
2023-04-01T06:51:03.393Z,4.90
2023-04-01T06:52:03.384Z,5.40
2023-04-01T06:53:03.358Z,4.40
2023-04-01T06:54:03.372Z,5.70
2023-04-01T06:55:03.341Z,4.40
2023-04-01T06:56:03.332Z,5.00
2023-04-01T06:57:03.339Z,5.00
2023-04-01T06:58:03.313Z,4.30
2023-04-01T06:59:03.333Z,5.00
2023-04-01T07:00:03.281Z,4.70
2023-04-01T07:01:03.322Z,4.40
2023-04-01T07:02:03.249Z,4.50
2023-04-01T07:03:05.488Z,3.40
2023-04-01T07:04:03.256Z,3.60
2023-04-01T07:05:03.232Z,5.10
2023-04-01T07:06:03.177Z,4.40
2023-04-01T07:07:03.178Z,3.90
2023-04-01T07:08:03.177Z,4.20
2023-04-01T07:09:05.114Z,3.80
2023-04-01T07:10:03.153Z,3.80
2023-04-01T07:11:03.149Z,3.60
2023-04-01T07:12:03.115Z,3.60
2023-04-01T07:13:03.106Z,3.80
2023-04-01T07:14:03.078Z,2.80
2023-04-01T07:15:03.082Z,3.30
2023-04-01T07:16:03.038Z,3.70
2023-04-01T07:17:03.038Z,3.60
2023-04-01T07:18:03.078Z,3.30
2023-04-01T07:19:03.115Z,3.00
2023-04-01T07:20:03.032Z,3.40
2023-04-01T07:21:02.984Z,3.30
2023-04-01T07:22:03.131Z,3.30
2023-04-01T07:23:02.960Z,3.10
2023-04-01T07:24:02.982Z,2.80
2023-04-01T07:25:02.918Z,2.70
2023-04-01T07:26:02.978Z,3.20
2023-04-01T07:27:02.895Z,2.70
2023-04-01T07:28:02.875Z,2.60
2023-04-01T07:29:02.950Z,2.80
2023-04-01T07:30:02.905Z,2.60
2023-04-01T07:31:02.916Z,2.30
2023-04-01T07:32:02.858Z,2.80
2023-04-01T07:33:02.912Z,2.70
2023-04-01T07:34:02.816Z,2.60
2023-04-01T07:35:02.853Z,3.80
2023-04-01T07:36:02.789Z,2.40
2023-04-01T07:37:02.784Z,2.20
2023-04-01T07:38:02.769Z,1.90
2023-04-01T07:39:02.777Z,1.90
2023-04-01T07:40:02.760Z,2.10
2023-04-01T07:41:02.738Z,2.70
2023-04-01T07:42:02.697Z,1.50
2023-04-01T07:43:02.678Z,3.30
2023-04-01T07:44:02.710Z,2.10
2023-04-01T07:45:02.705Z,3.70
2023-04-01T07:46:02.693Z,2.10
2023-04-01T07:47:02.632Z,1.60
2023-04-01T07:48:02.716Z,1.40
2023-04-01T07:49:02.614Z,2.10
2023-04-01T07:50:02.580Z,1.50
2023-04-01T07:51:02.594Z,1.80
2023-04-01T07:52:02.551Z,1.90
2023-04-01T07:53:02.570Z,16.60
2023-04-01T07:54:02.532Z,2.00
2023-04-01T07:55:02.548Z,2.30
2023-04-01T07:56:02.503Z,2.60
2023-04-01T07:57:02.544Z,2.00
2023-04-01T07:58:02.482Z,1.70
2023-04-01T07:59:02.461Z,1.80
2023-04-01T08:00:02.465Z,1.50
2023-04-01T08:01:02.439Z,1.60
2023-04-01T08:02:02.443Z,1.60
2023-04-01T08:03:02.519Z,1.30
2023-04-01T08:04:02.516Z,1.80
2023-04-01T08:05:02.442Z,1.70
2023-04-01T08:06:02.444Z,1.40
2023-04-01T08:07:02.377Z,1.30
2023-04-01T08:08:02.338Z,1.70
2023-04-01T08:09:02.332Z,1.30
2023-04-01T08:10:02.330Z,1.40
2023-04-01T08:11:02.332Z,1.30
2023-04-01T08:12:02.296Z,1.70
2023-04-01T08:13:02.321Z,1.40
2023-04-01T08:14:02.263Z,2.70
2023-04-01T08:15:02.248Z,1.60
2023-04-01T08:16:02.272Z,2.00
2023-04-01T08:17:02.233Z,1.30
2023-04-01T08:18:02.261Z,1.50
2023-04-01T08:19:02.213Z,1.30
2023-04-01T08:20:02.222Z,1.60
2023-04-01T08:21:02.176Z,1.40
2023-04-01T08:22:02.188Z,1.60
2023-04-01T08:23:02.141Z,1.50
2023-04-01T08:24:02.138Z,1.30
2023-04-01T08:25:02.131Z,1.60
2023-04-01T08:26:02.105Z,2.00
2023-04-01T08:27:02.101Z,1.90
2023-04-01T08:28:02.085Z,1.90
2023-04-01T08:29:02.063Z,1.50
2023-04-01T08:30:02.114Z,1.40
2023-04-01T08:31:02.089Z,6.10
2023-04-01T08:32:02.045Z,2.10
2023-04-01T08:33:02.149Z,2.20
2023-04-01T08:34:02.032Z,1.60
2023-04-01T08:35:02.064Z,4.10
2023-04-01T08:36:02.045Z,2.60
2023-04-01T08:37:02.010Z,2.30
2023-04-01T08:38:02.019Z,2.40
2023-04-01T08:39:02.064Z,1.50
2023-04-01T08:40:02.017Z,1.50
2023-04-01T08:41:01.917Z,1.90
2023-04-01T08:42:01.906Z,2.20
2023-04-01T08:43:01.884Z,1.60
2023-04-01T08:44:01.894Z,2.10
2023-04-01T08:45:01.860Z,1.60
2023-04-01T08:46:01.880Z,1.80
2023-04-01T08:47:01.857Z,1.50
2023-04-01T08:48:01.967Z,1.10
2023-04-01T08:49:01.817Z,1.70
2023-04-01T08:50:01.860Z,1.40
2023-04-01T08:51:01.820Z,1.30
2023-04-01T08:52:01.897Z,1.50
2023-04-01T08:53:01.778Z,1.40
2023-04-01T08:54:01.733Z,1.50
2023-04-01T08:55:01.751Z,1.90
2023-04-01T08:56:01.761Z,1.80
2023-04-01T08:57:01.811Z,1.30
2023-04-01T08:58:01.718Z,1.60
2023-04-01T08:59:01.760Z,5.70
2023-04-01T09:00:01.707Z,2.00
2023-04-01T09:01:01.692Z,5.50
2023-04-01T09:02:01.706Z,2.60
2023-04-01T09:03:01.814Z,2.40
2023-04-01T09:04:01.723Z,2.20
2023-04-01T09:05:01.650Z,2.00
2023-04-01T09:06:01.703Z,2.80
2023-04-01T09:07:01.684Z,4.10
2023-04-01T09:08:01.572Z,3.60
2023-04-01T09:09:01.670Z,3.60
2023-04-01T09:10:01.556Z,4.70
2023-04-01T09:11:01.608Z,5.20
2023-04-01T09:12:01.601Z,5.30
2023-04-01T09:13:01.635Z,5.50
2023-04-01T09:14:01.579Z,6.10
2023-04-01T09:15:01.471Z,6.90
2023-04-01T09:16:01.501Z,4.80
2023-04-01T09:17:01.423Z,4.80
2023-04-01T09:18:01.441Z,6.30
2023-04-01T09:19:01.440Z,5.70
2023-04-01T09:20:01.394Z,6.60
2023-04-01T09:21:01.360Z,6.90
2023-04-01T09:22:01.389Z,7.20
2023-04-01T09:23:01.367Z,7.40
2023-04-01T09:24:01.346Z,7.40
2023-04-01T09:25:01.361Z,7.30
2023-04-01T09:26:01.390Z,8.40
2023-04-01T09:27:01.282Z,8.90
2023-04-01T09:28:01.299Z,8.80
2023-04-01T09:29:01.291Z,9.80
2023-04-01T09:30:01.349Z,10.80
2023-04-01T09:31:01.285Z,10.50
2023-04-01T09:32:01.274Z,11.10
2023-04-01T09:33:01.629Z,10.90
2023-04-01T09:34:01.223Z,12.40
2023-04-01T09:35:01.243Z,11.70
2023-04-01T09:36:01.236Z,12.30
2023-04-01T09:37:01.199Z,12.00
2023-04-01T09:38:01.202Z,11.60
2023-04-01T09:39:01.180Z,12.20
2023-04-01T09:40:01.135Z,11.20
2023-04-01T09:41:01.148Z,11.30
2023-04-01T09:42:01.101Z,11.50
2023-04-01T09:43:01.170Z,10.80
2023-04-01T09:44:01.136Z,9.90
2023-04-01T09:45:01.190Z,10.20
2023-04-01T09:46:01.127Z,10.50
2023-04-01T09:47:01.074Z,10.00
2023-04-01T09:48:01.109Z,10.50
2023-04-01T09:49:01.095Z,10.30
2023-04-01T09:50:01.074Z,11.00
2023-04-01T09:51:01.065Z,9.40
2023-04-01T09:52:01.042Z,10.40
2023-04-01T09:53:01.059Z,9.60
2023-04-01T09:54:01.031Z,8.60
2023-04-01T09:55:01.018Z,8.50
2023-04-01T09:56:00.921Z,8.70
2023-04-01T09:57:01.034Z,8.10
2023-04-01T09:58:00.933Z,9.40
2023-04-01T09:59:00.965Z,8.10
2023-04-01T10:00:00.937Z,8.00
2023-04-01T10:01:00.847Z,8.60
2023-04-01T10:02:00.913Z,8.80
2023-04-01T10:03:00.974Z,9.00
2023-04-01T10:04:00.813Z,9.10
2023-04-01T10:05:00.799Z,8.80
2023-04-01T10:06:00.784Z,9.20
2023-04-01T10:07:00.852Z,9.00
2023-04-01T10:08:00.781Z,9.50
2023-04-01T10:09:00.792Z,9.40
2023-04-01T10:10:00.748Z,10.00
2023-04-01T10:11:00.711Z,10.60
2023-04-01T10:12:00.718Z,9.50
2023-04-01T10:13:00.741Z,10.50
2023-04-01T10:14:00.780Z,11.00
2023-04-01T10:15:00.830Z,10.40
2023-04-01T10:16:00.722Z,10.70
2023-04-01T10:17:00.640Z,9.90
2023-04-01T10:18:00.749Z,10.60
2023-04-01T10:19:00.757Z,11.10
2023-04-01T10:20:00.665Z,9.70
2023-04-01T10:21:00.770Z,11.10
2023-04-01T10:22:00.644Z,11.00
2023-04-01T10:23:00.600Z,11.80
2023-04-01T10:24:00.650Z,11.80
2023-04-01T10:25:00.551Z,13.30
2023-04-01T10:26:00.801Z,12.70
2023-04-01T10:27:00.649Z,12.40
2023-04-01T10:28:00.775Z,12.60
2023-04-01T10:29:00.619Z,11.90
2023-04-01T10:30:00.587Z,13.00
2023-04-01T10:31:00.470Z,11.00
2023-04-01T10:32:00.627Z,13.60
2023-04-01T10:33:00.453Z,13.50
2023-04-01T10:34:00.414Z,12.80
2023-04-01T10:35:00.458Z,13.60
2023-04-01T10:36:00.586Z,13.10
2023-04-01T10:37:00.411Z,12.70
2023-04-01T10:38:00.343Z,10.20
2023-04-01T10:39:00.394Z,10.00
2023-04-01T10:40:00.338Z,9.80
2023-04-01T10:41:00.397Z,8.40
2023-04-01T10:42:00.370Z,6.90
2023-04-01T10:43:00.309Z,5.40
2023-04-01T10:44:00.261Z,5.00
2023-04-01T10:45:00.311Z,4.80
2023-04-01T10:46:00.374Z,5.00
2023-04-01T10:47:00.277Z,5.40
2023-04-01T10:48:00.338Z,6.10
2023-04-01T10:49:00.200Z,4.50
2023-04-01T10:50:00.228Z,4.30
2023-04-01T10:51:00.212Z,4.70
2023-04-01T10:52:00.155Z,5.90
2023-04-01T10:53:00.190Z,4.40
2023-04-01T10:54:00.148Z,3.80
2023-04-01T10:55:00.161Z,4.30
2023-04-01T10:56:00.167Z,3.70
2023-04-01T10:57:00.197Z,4.00
2023-04-01T10:58:00.079Z,3.50
2023-04-01T10:59:00.118Z,3.20
2023-04-01T11:00:00.132Z,3.60
2023-04-01T11:01:00.076Z,3.60
2023-04-01T11:02:09.966Z,3.30
2023-04-01T11:03:00.116Z,3.70
2023-04-01T11:04:00.028Z,4.10
2023-04-01T11:04:59.995Z,4.70
2023-04-01T11:05:59.989Z,4.50
2023-04-01T11:06:59.953Z,6.20
2023-04-01T11:08:06.111Z,8.90
2023-04-01T11:08:59.930Z,8.80
2023-04-01T11:09:59.928Z,8.70
2023-04-01T11:10:59.930Z,9.70
2023-04-01T11:11:59.919Z,10.00
2023-04-01T11:12:59.954Z,8.00
2023-04-01T11:13:59.876Z,7.40
2023-04-01T11:14:59.887Z,9.50
2023-04-01T11:15:59.858Z,10.70
2023-04-01T11:16:59.857Z,9.20
2023-04-01T11:17:59.873Z,7.40
2023-04-01T11:18:59.788Z,7.20
2023-04-01T11:19:59.761Z,6.90
2023-04-01T11:20:59.766Z,6.10
2023-04-01T11:21:59.759Z,5.30
2023-04-01T11:22:59.741Z,5.70
2023-04-01T11:24:04.902Z,6.90
2023-04-01T11:24:59.734Z,12.10
2023-04-01T11:25:59.736Z,16.80
2023-04-01T11:26:59.744Z,5.60
2023-04-01T11:27:59.679Z,6.40
2023-04-01T11:28:59.697Z,4.90
2023-04-01T11:30:00.761Z,4.40
2023-04-01T11:30:59.644Z,5.30
2023-04-01T11:31:59.621Z,4.40
2023-04-01T11:32:59.673Z,4.40
2023-04-01T11:33:59.595Z,4.50
2023-04-01T11:34:59.566Z,4.40
2023-04-01T11:35:59.552Z,5.10
2023-04-01T11:36:59.567Z,4.70
2023-04-01T11:37:59.533Z,4.40
2023-04-01T11:38:59.510Z,3.70
2023-04-01T11:39:59.557Z,4.20
2023-04-01T11:40:59.517Z,4.20
2023-04-01T11:41:59.491Z,3.60
2023-04-01T11:42:59.498Z,4.00
2023-04-01T11:43:59.466Z,3.40
2023-04-01T11:44:59.488Z,3.60
2023-04-01T11:45:59.516Z,2.90
2023-04-01T11:46:59.425Z,3.10
2023-04-01T11:47:59.506Z,6.10
2023-04-01T11:48:59.440Z,18.70
2023-04-01T11:49:59.413Z,10.70
2023-04-01T11:50:59.490Z,4.20
2023-04-01T11:51:59.370Z,3.50
2023-04-01T11:52:59.354Z,3.40
2023-04-01T11:53:59.334Z,3.40
2023-04-01T11:54:59.336Z,3.40
2023-04-01T11:55:59.289Z,4.20
2023-04-01T11:56:59.379Z,8.30
2023-04-01T11:57:59.266Z,6.00
2023-04-01T11:58:59.264Z,4.10
2023-04-01T11:59:59.265Z,4.20
2023-04-01T12:00:59.351Z,3.90
2023-04-01T12:01:59.262Z,4.40
2023-04-01T12:02:59.369Z,4.10
2023-04-01T12:03:59.325Z,4.10
2023-04-01T12:04:59.272Z,3.90
2023-04-01T12:05:59.245Z,3.70
2023-04-01T12:06:59.202Z,3.10
2023-04-01T12:07:59.233Z,2.90
2023-04-01T12:08:59.129Z,2.80
2023-04-01T12:09:59.157Z,2.90
2023-04-01T12:10:59.110Z,2.60
2023-04-01T12:11:59.097Z,2.40
2023-04-01T12:13:01.723Z,2.30
2023-04-01T12:13:59.108Z,2.40
2023-04-01T12:14:59.038Z,2.30
2023-04-01T12:15:59.026Z,2.60
2023-04-01T12:16:59.025Z,2.30
2023-04-01T12:17:59.017Z,2.50
2023-04-01T12:18:58.972Z,2.90
2023-04-01T12:19:59.012Z,2.50
2023-04-01T12:20:58.968Z,2.70
2023-04-01T12:21:58.948Z,2.70
2023-04-01T12:22:58.938Z,3.00
2023-04-01T12:23:58.935Z,3.10
2023-04-01T12:24:58.883Z,2.80
2023-04-01T12:25:58.907Z,3.10
2023-04-01T12:26:58.902Z,2.80
2023-04-01T12:27:58.889Z,3.10
2023-04-01T12:28:58.852Z,3.20
2023-04-01T12:29:58.865Z,3.00
2023-04-01T12:30:58.822Z,3.50
2023-04-01T12:31:58.892Z,3.50
2023-04-01T12:32:58.886Z,3.50
2023-04-01T12:33:58.780Z,3.20
2023-04-01T12:34:58.859Z,3.10
2023-04-01T12:35:58.860Z,3.60
2023-04-01T12:36:58.782Z,3.60
2023-04-01T12:37:58.725Z,3.70
2023-04-01T12:38:58.727Z,3.40
2023-04-01T12:39:58.734Z,3.70
2023-04-01T12:40:58.696Z,3.20
2023-04-01T12:41:58.703Z,3.80
2023-04-01T12:42:58.695Z,4.20
2023-04-01T12:43:58.659Z,4.30
2023-04-01T12:44:58.677Z,3.90
2023-04-01T12:45:58.724Z,3.90
2023-04-01T12:46:58.667Z,3.70
2023-04-01T12:47:58.653Z,4.00
2023-04-01T12:48:58.584Z,3.90
2023-04-01T12:49:58.588Z,4.10
2023-04-01T12:50:58.547Z,3.90
2023-04-01T12:51:58.541Z,3.60
2023-04-01T12:52:58.522Z,4.20
2023-04-01T12:53:58.527Z,3.70
2023-04-01T12:55:00.687Z,3.80
2023-04-01T12:55:58.529Z,3.50
2023-04-01T12:56:58.514Z,3.60
2023-04-01T12:57:58.508Z,3.40
2023-04-01T12:58:58.437Z,3.70
2023-04-01T12:59:58.575Z,3.60
2023-04-01T13:00:58.464Z,3.70
2023-04-01T13:01:58.419Z,3.70
2023-04-01T13:02:58.471Z,3.50
2023-04-01T13:03:58.419Z,3.60
2023-04-01T13:04:58.358Z,3.00
2023-04-01T13:05:58.350Z,3.30
2023-04-01T13:06:58.374Z,3.20
2023-04-01T13:07:58.332Z,3.00
2023-04-01T13:08:58.315Z,2.70
2023-04-01T13:09:58.329Z,2.40
2023-04-01T13:10:58.294Z,4.90
2023-04-01T13:11:58.271Z,5.30
2023-04-01T13:12:58.329Z,3.70
2023-04-01T13:13:58.263Z,5.40
2023-04-01T13:14:58.227Z,3.80